Time;durP1;ratioP1;P1;durP2;ratioP2;P2;SDS_P1;SDS_P2;PMS_P1;PMS_P2;Temp;Humidity;BMP_temperature;BMP_pressure;BME280_temperature;BME280_humidity;BME280_pressure;Samples;Min_cycle;Max_cycle;Signal;HPM_P1;HPM_P2
2021/09/21 00:01:51;;;;;;;6.15;2.60;;;12.70;93.80;;;;;;5061412;28;20104;-71
2021/09/21 00:04:17;;;;;;;6.00;2.80;;;12.70;93.90;;;;;;5072119;28;20032;-71
2021/09/21 00:06:43;;;;;;;7.20;3.05;;;12.70;93.90;;;;;;5068685;28;20016;-71
2021/09/21 00:09:09;;;;;;;4.45;2.40;;;12.70;94.10;;;;;;5067399;28;20552;-71
2021/09/21 00:11:34;;;;;;;3.90;2.33;;;12.70;94.20;;;;;;5051306;28;20041;-71
2021/09/21 00:14:01;;;;;;;5.07;2.80;;;12.70;94.20;;;;;;5077704;28;20396;-71
2021/09/21 00:16:27;;;;;;;7.18;3.30;;;12.60;94.20;;;;;;5086810;28;20470;-71
2021/09/21 00:18:53;;;;;;;5.95;3.20;;;12.60;94.20;;;;;;5075139;28;20032;-71
2021/09/21 00:21:18;;;;;;;6.10;3.25;;;12.60;94.20;;;;;;5076141;28;20527;-71
2021/09/21 00:23:44;;;;;;;6.00;3.13;;;12.60;94.20;;;;;;5075150;28;20029;-71
2021/09/21 00:26:09;;;;;;;4.57;2.97;;;12.60;94.30;;;;;;5063339;28;20047;-71
2021/09/21 00:28:35;;;;;;;9.40;2.90;;;12.50;94.50;;;;;;5070200;28;20020;-71
2021/09/21 00:31:07;;;;;;;4.65;2.90;;;12.50;94.60;;;;;;5069628;28;20103;-71
2021/09/21 00:33:47;;;;;;;5.40;3.00;;;12.50;94.70;;;;;;5064703;28;20027;-71
2021/09/21 00:36:14;;;;;;;7.78;2.88;;;12.40;94.70;;;;;;5071537;28;20036;-71
2021/09/21 00:38:40;;;;;;;4.90;3.20;;;12.40;94.80;;;;;;5070695;28;20012;-71
2021/09/21 00:41:05;;;;;;;7.13;3.25;;;12.40;94.90;;;;;;5072381;28;20031;-71
2021/09/21 00:43:31;;;;;;;6.57;3.75;;;12.40;95.00;;;;;;5066666;28;20089;-71
2021/09/21 00:45:56;;;;;;;8.05;3.47;;;12.30;95.10;;;;;;5075928;28;20025;-71
2021/09/21 00:48:22;;;;;;;5.60;3.10;;;12.30;95.20;;;;;;5080950;28;20346;-71
2021/09/21 00:50:49;;;;;;;5.00;3.03;;;12.30;95.30;;;;;;5071564;28;20386;-71
2021/09/21 00:53:15;;;;;;;6.88;3.40;;;12.20;95.40;;;;;;5070995;28;20050;-71
2021/09/21 00:55:41;;;;;;;5.07;2.88;;;12.20;95.40;;;;;;5053970;28;20102;-71
2021/09/21 00:58:07;;;;;;;5.65;3.40;;;12.20;95.50;;;;;;5070559;28;20048;-71
2021/09/21 01:00:33;;;;;;;5.60;3.47;;;12.20;95.50;;;;;;5073764;28;20033;-71
2021/09/21 01:02:59;;;;;;;6.55;4.07;;;12.20;95.60;;;;;;5075581;28;20020;-71
2021/09/21 01:05:24;;;;;;;6.25;3.58;;;12.20;95.60;;;;;;5066871;28;20032;-71
2021/09/21 01:07:50;;;;;;;8.35;3.85;;;12.20;95.70;;;;;;5069500;28;20112;-72
2021/09/21 01:10:24;;;;;;;7.88;3.80;;;12.10;95.70;;;;;;5069768;28;20035;-71
2021/09/21 01:12:51;;;;;;;5.80;4.00;;;12.10;95.80;;;;;;5080707;28;20120;-71
2021/09/21 01:15:17;;;;;;;6.85;3.63;;;12.00;95.80;;;;;;5096460;28;20016;-71
2021/09/21 01:17:43;;;;;;;6.38;3.70;;;12.00;95.80;;;;;;5087401;28;20048;-71
2021/09/21 01:20:10;;;;;;;6.88;3.70;;;12.00;95.80;;;;;;5080953;28;20024;-71
2021/09/21 01:22:36;;;;;;;5.03;3.60;;;12.00;95.70;;;;;;5079558;28;20025;-71
2021/09/21 01:25:02;;;;;;;7.72;4.20;;;12.00;95.70;;;;;;5078426;28;20028;-71
2021/09/21 01:27:28;;;;;;;8.02;4.00;;;11.90;96.00;;;;;;5078334;28;20019;-72
2021/09/21 01:29:53;;;;;;;5.07;3.78;;;11.90;95.80;;;;;;5095285;28;20032;-71
2021/09/21 01:32:21;;;;;;;7.90;3.80;;;11.90;95.80;;;;;;5081036;28;20067;-71
2021/09/21 01:34:47;;;;;;;8.50;3.92;;;11.90;95.90;;;;;;5082354;28;20032;-71
2021/09/21 01:37:13;;;;;;;8.38;4.03;;;11.90;96.00;;;;;;5081957;28;20033;-71
2021/09/21 01:39:41;;;;;;;8.43;3.53;;;11.90;96.00;;;;;;5075168;28;20028;-71
2021/09/21 01:42:09;;;;;;;8.50;3.63;;;11.80;96.00;;;;;;5080830;28;20177;-71
2021/09/21 01:44:35;;;;;;;5.55;3.22;;;11.90;96.00;;;;;;5067568;28;20029;-71
2021/09/21 01:47:03;;;;;;;5.25;3.40;;;11.80;96.00;;;;;;5061049;28;20042;-71
2021/09/21 01:49:35;;;;;;;6.95;3.67;;;11.90;96.00;;;;;;5054669;28;20021;-71
2021/09/21 01:52:12;;;;;;;5.30;3.00;;;11.80;96.00;;;;;;5073530;28;20033;-71
2021/09/21 01:59:54;;;;;;;6.43;4.07;;;11.80;96.10;;;;;;5082028;28;20081;-71
2021/09/21 02:02:19;;;;;;;6.68;3.67;;;11.80;96.20;;;;;;5071525;28;20021;-71
2021/09/21 02:04:45;;;;;;;6.47;3.78;;;11.70;96.20;;;;;;5078520;28;20377;-71
2021/09/21 02:07:10;;;;;;;6.07;4.30;;;11.70;96.30;;;;;;5061559;28;20056;-71
2021/09/21 02:09:36;;;;;;;7.30;4.07;;;11.70;96.40;;;;;;5071535;28;20032;-71
2021/09/21 02:12:02;;;;;;;6.03;3.70;;;11.70;96.50;;;;;;5080607;28;20450;-71
2021/09/21 02:14:27;;;;;;;6.85;4.38;;;11.60;96.50;;;;;;5080325;28;20032;-71
2021/09/21 02:16:54;;;;;;;5.85;3.70;;;11.70;96.50;;;;;;5054337;28;20115;-71
2021/09/21 02:19:21;;;;;;;8.65;4.63;;;11.60;96.40;;;;;;5053480;28;20047;-71
2021/09/21 02:21:48;;;;;;;8.57;4.90;;;11.70;96.40;;;;;;5079114;28;20039;-71
2021/09/21 02:24:18;;;;;;;8.27;4.28;;;11.60;96.40;;;;;;5084720;28;20099;-71
2021/09/21 02:26:44;;;;;;;9.80;4.75;;;11.70;96.30;;;;;;5079911;28;20482;-71
2021/09/21 02:29:11;;;;;;;6.45;4.07;;;11.70;96.30;;;;;;5077981;28;20055;-71
2021/09/21 02:31:37;;;;;;;8.90;5.25;;;11.60;96.30;;;;;;5077068;28;20024;-71
2021/09/21 02:34:03;;;;;;;6.00;3.97;;;11.60;96.30;;;;;;5074574;28;20116;-71
2021/09/21 02:36:28;;;;;;;5.78;4.05;;;11.60;96.40;;;;;;5072462;28;20115;-71
2021/09/21 02:38:54;;;;;;;6.40;4.07;;;11.50;96.50;;;;;;5071148;28;20025;-71
2021/09/21 02:41:19;;;;;;;6.75;4.05;;;11.50;96.50;;;;;;5068857;28;20074;-71
2021/09/21 02:43:45;;;;;;;5.60;4.40;;;11.50;96.50;;;;;;5075800;28;20032;-71
2021/09/21 02:46:10;;;;;;;6.15;3.70;;;11.50;96.50;;;;;;5066299;28;20493;-71
2021/09/21 02:48:37;;;;;;;9.77;4.57;;;11.50;96.50;;;;;;5071682;28;20512;-70
2021/09/21 02:51:03;;;;;;;6.07;3.90;;;11.40;96.50;;;;;;5065864;28;20021;-70
2021/09/21 02:53:29;;;;;;;7.43;4.05;;;11.40;96.50;;;;;;5049929;28;20067;-70
2021/09/21 02:55:55;;;;;;;6.18;4.03;;;11.40;96.50;;;;;;5070397;28;20095;-70
2021/09/21 02:58:20;;;;;;;6.75;3.95;;;11.30;96.50;;;;;;5064781;28;20028;-70
2021/09/21 03:00:49;;;;;;;11.20;4.78;;;11.30;96.50;;;;;;5082293;28;20447;-70
2021/09/21 03:03:15;;;;;;;8.98;3.75;;;11.30;96.50;;;;;;5076090;28;20469;-71
2021/09/21 03:05:52;;;;;;;7.75;4.03;;;11.20;96.50;;;;;;5064129;28;20063;-72
2021/09/21 03:08:19;;;;;;;6.40;3.53;;;11.30;96.60;;;;;;5069594;28;20417;-72
2021/09/21 03:10:55;;;;;;;7.13;3.90;;;11.20;96.60;;;;;;5052458;28;20051;-72
2021/09/21 03:18:34;;;;;;;6.43;3.60;;;11.20;96.60;;;;;;5083536;28;20085;-71
2021/09/21 03:20:59;;;;;;;9.18;4.35;;;11.20;96.60;;;;;;5063134;28;20025;-72
2021/09/21 03:23:25;;;;;;;8.02;4.15;;;11.20;96.60;;;;;;5081779;28;20045;-72
2021/09/21 03:25:51;;;;;;;5.93;3.75;;;11.10;96.60;;;;;;5066132;28;20116;-72
2021/09/21 03:28:17;;;;;;;7.82;3.90;;;11.10;96.70;;;;;;5050162;28;20032;-72
2021/09/21 03:30:43;;;;;;;7.22;3.33;;;11.10;96.70;;;;;;5062624;28;20029;-71
2021/09/21 03:33:08;;;;;;;6.40;3.78;;;11.10;96.80;;;;;;5084615;28;20036;-72
2021/09/21 03:35:34;;;;;;;9.27;4.43;;;11.00;96.80;;;;;;5074222;28;20071;-72
2021/09/21 03:37:59;;;;;;;7.85;4.18;;;11.00;96.80;;;;;;5044868;28;20033;-72
2021/09/21 03:40:25;;;;;;;7.30;4.72;;;11.00;96.90;;;;;;5071774;28;20016;-72
2021/09/21 03:42:50;;;;;;;7.05;4.82;;;11.00;97.00;;;;;;5069849;28;20029;-72
2021/09/21 03:45:16;;;;;;;4.75;3.30;;;11.00;97.10;;;;;;5071712;28;20470;-72
2021/09/21 03:47:42;;;;;;;7.35;4.25;;;10.90;97.20;;;;;;5079418;28;20031;-72
2021/09/21 03:50:08;;;;;;;8.88;4.25;;;10.90;97.20;;;;;;5069957;28;20032;-72
2021/09/21 03:52:34;;;;;;;8.35;4.55;;;10.90;97.30;;;;;;5079650;28;20374;-72
2021/09/21 03:55:00;;;;;;;6.47;3.63;;;10.90;97.30;;;;;;5048252;28;20095;-72
2021/09/21 03:57:25;;;;;;;7.18;4.72;;;10.80;97.40;;;;;;5068959;28;20366;-72
2021/09/21 03:59:51;;;;;;;6.53;4.20;;;10.80;97.50;;;;;;5054777;28;20441;-72
2021/09/21 04:02:16;;;;;;;7.10;4.32;;;10.80;97.60;;;;;;5087357;28;20028;-72
2021/09/21 04:04:42;;;;;;;10.15;5.00;;;10.80;97.60;;;;;;5071038;28;20028;-71
2021/09/21 04:07:07;;;;;;;7.78;4.70;;;10.80;97.70;;;;;;5072266;28;20024;-71
2021/09/21 04:09:33;;;;;;;8.43;4.22;;;10.70;97.80;;;;;;5069809;28;20431;-72
2021/09/21 04:11:59;;;;;;;6.93;4.47;;;10.70;97.80;;;;;;5070291;28;20074;-72
2021/09/21 04:14:24;;;;;;;7.32;4.60;;;10.70;97.90;;;;;;5065077;28;20103;-72
2021/09/21 04:16:50;;;;;;;7.25;4.60;;;10.70;98.00;;;;;;5069907;28;20073;-72
2021/09/21 04:19:16;;;;;;;8.45;4.50;;;10.70;98.00;;;;;;5073655;28;20145;-72
2021/09/21 04:21:41;;;;;;;7.28;4.43;;;10.70;98.10;;;;;;5070221;28;20161;-72
2021/09/21 04:24:07;;;;;;;7.03;4.93;;;10.70;98.10;;;;;;5069583;28;20021;-72
2021/09/21 04:26:33;;;;;;;9.88;4.63;;;10.60;98.10;;;;;;5063829;28;20034;-72
2021/09/21 04:28:58;;;;;;;8.60;5.07;;;10.70;98.20;;;;;;5069711;28;20397;-72
2021/09/21 04:31:25;;;;;;;6.50;4.47;;;10.60;98.30;;;;;;5063195;28;20066;-72
2021/09/21 04:33:52;;;;;;;9.90;5.00;;;10.60;98.30;;;;;;5053005;28;20040;-72
2021/09/21 04:36:19;;;;;;;8.30;5.22;;;10.60;98.30;;;;;;5070415;28;20498;-72
2021/09/21 04:38:45;;;;;;;6.85;4.28;;;10.60;98.40;;;;;;5063955;28;20020;-72
2021/09/21 04:41:11;;;;;;;7.13;4.22;;;10.60;98.40;;;;;;5066231;28;20066;-72
2021/09/21 04:43:37;;;;;;;8.90;4.38;;;10.60;98.40;;;;;;5069743;28;20017;-72
2021/09/21 04:46:04;;;;;;;8.93;4.70;;;10.50;98.40;;;;;;5074352;28;20074;-71
2021/09/21 04:48:30;;;;;;;5.38;3.58;;;10.50;98.50;;;;;;5055588;28;20499;-72
2021/09/21 04:50:55;;;;;;;7.07;3.97;;;10.50;98.50;;;;;;5073303;28;20052;-71
2021/09/21 04:53:21;;;;;;;7.43;4.40;;;10.50;98.50;;;;;;5071212;28;20111;-72
2021/09/21 04:55:46;;;;;;;7.90;4.10;;;10.40;98.50;;;;;;5062582;28;20028;-72
2021/09/21 04:58:12;;;;;;;7.80;4.13;;;10.40;98.50;;;;;;5081151;28;20012;-72
2021/09/21 05:00:37;;;;;;;8.80;4.38;;;10.40;98.50;;;;;;5070036;28;20025;-72
2021/09/21 05:03:03;;;;;;;6.88;4.10;;;10.40;98.60;;;;;;5050663;28;20017;-72
2021/09/21 05:05:29;;;;;;;6.47;4.03;;;10.40;98.60;;;;;;5069543;28;20020;-72
2021/09/21 05:07:55;;;;;;;7.88;4.60;;;10.40;98.60;;;;;;5065625;28;20028;-72
2021/09/21 05:10:20;;;;;;;7.38;4.90;;;10.40;98.60;;;;;;5079963;28;20119;-72
2021/09/21 05:12:46;;;;;;;7.30;4.07;;;10.40;98.60;;;;;;5082014;28;20528;-72
2021/09/21 05:15:12;;;;;;;7.88;4.00;;;10.30;98.60;;;;;;5064330;28;20068;-72
2021/09/21 05:17:38;;;;;;;8.82;4.38;;;10.30;98.50;;;;;;5083891;28;20024;-72
2021/09/21 05:20:05;;;;;;;9.38;4.57;;;10.30;98.60;;;;;;5060120;28;20092;-72
2021/09/21 05:22:31;;;;;;;10.32;5.70;;;10.30;98.60;;;;;;5041483;28;20028;-72
2021/09/21 05:24:57;;;;;;;8.85;4.35;;;10.30;98.60;;;;;;5065153;28;20028;-72
2021/09/21 05:27:22;;;;;;;8.90;4.60;;;10.30;98.70;;;;;;5065669;28;20342;-72
2021/09/21 05:29:48;;;;;;;9.38;4.80;;;10.30;98.80;;;;;;5064947;28;20037;-72
2021/09/21 05:32:13;;;;;;;8.35;4.22;;;10.30;98.90;;;;;;5057889;28;20076;-72
2021/09/21 05:34:39;;;;;;;8.02;5.05;;;10.30;98.90;;;;;;5072653;28;20021;-71
2021/09/21 05:37:04;;;;;;;11.15;5.57;;;10.30;99.00;;;;;;5059295;28;20037;-72
2021/09/21 05:39:30;;;;;;;12.10;6.25;;;10.30;99.10;;;;;;5062053;28;20072;-71
2021/09/21 05:41:55;;;;;;;7.93;4.97;;;10.30;99.10;;;;;;5060395;28;20051;-72
2021/09/21 05:44:21;;;;;;;10.00;5.15;;;10.40;99.20;;;;;;5060044;28;20028;-71
2021/09/21 05:46:47;;;;;;;9.55;5.05;;;10.40;99.30;;;;;;5059957;28;20127;-72
2021/09/21 05:49:12;;;;;;;15.10;5.63;;;10.50;99.40;;;;;;5060628;28;20056;-72
2021/09/21 05:51:38;;;;;;;10.15;5.97;;;10.50;99.50;;;;;;5061294;28;20020;-72
2021/09/21 05:54:03;;;;;;;12.38;6.07;;;10.60;99.60;;;;;;5068740;28;20505;-72
2021/09/21 05:56:29;;;;;;;14.30;7.50;;;10.60;99.60;;;;;;5063888;28;20036;-71
2021/09/21 05:58:56;;;;;;;10.52;6.43;;;10.70;99.80;;;;;;5063353;28;20036;-70
2021/09/21 06:01:21;;;;;;;10.63;5.53;;;11.00;99.90;;;;;;5055755;28;20359;-70
2021/09/21 06:03:47;;;;;;;12.13;6.57;;;11.50;99.90;;;;;;5055775;28;20036;-70
2021/09/21 06:06:12;;;;;;;9.13;4.57;;;12.10;99.80;;;;;;5062557;28;20069;-69
2021/09/21 06:08:38;;;;;;;6.35;4.00;;;12.70;99.40;;;;;;5055603;28;20032;-70
2021/09/21 06:11:03;;;;;;;5.40;3.67;;;13.30;98.60;;;;;;5073277;28;20020;-69
2021/09/21 06:13:29;;;;;;;6.85;4.32;;;13.90;97.80;;;;;;5059496;28;20024;-69
2021/09/21 06:15:55;;;;;;;8.10;3.55;;;14.50;96.80;;;;;;5061652;28;20075;-69
2021/09/21 06:18:20;;;;;;;6.55;3.58;;;14.90;96.10;;;;;;5062148;28;20013;-69
2021/09/21 06:20:46;;;;;;;6.03;3.90;;;15.40;95.30;;;;;;5076067;28;20036;-69
2021/09/21 06:23:11;;;;;;;5.22;3.78;;;15.70;94.60;;;;;;5075285;28;20029;-69
2021/09/21 06:25:38;;;;;;;6.65;3.67;;;16.00;94.00;;;;;;5072240;28;20032;-69
2021/09/21 06:28:05;;;;;;;6.65;3.65;;;16.30;93.30;;;;;;5067146;28;20039;-72
2021/09/21 06:30:30;;;;;;;5.95;3.95;;;16.60;92.60;;;;;;5073003;28;20048;-71
2021/09/21 06:32:56;;;;;;;6.55;4.57;;;16.80;92.00;;;;;;5075695;28;20040;-71
2021/09/21 06:35:23;;;;;;;6.05;4.25;;;17.00;91.30;;;;;;5062503;28;20116;-70
2021/09/21 06:37:48;;;;;;;7.95;4.88;;;17.10;90.40;;;;;;5058711;28;20504;-70
2021/09/21 06:40:15;;;;;;;5.97;4.25;;;17.20;90.00;;;;;;5056520;28;20017;-70
2021/09/21 06:42:42;;;;;;;6.47;4.43;;;17.20;89.70;;;;;;5053323;28;20037;-70
2021/09/21 06:45:09;;;;;;;6.22;3.63;;;17.30;89.40;;;;;;5065019;28;20111;-70
2021/09/21 06:47:35;;;;;;;5.00;3.67;;;17.40;88.40;;;;;;5047897;28;20020;-70
2021/09/21 06:50:00;;;;;;;6.95;4.25;;;17.50;88.20;;;;;;5052581;28;20024;-70
2021/09/21 06:52:26;;;;;;;6.10;4.65;;;17.70;87.90;;;;;;5053523;28;20017;-71
2021/09/21 06:54:52;;;;;;;5.72;3.80;;;18.10;87.20;;;;;;5054886;28;20143;-72
2021/09/21 06:57:17;;;;;;;6.00;4.25;;;18.40;85.90;;;;;;5069508;28;20033;-70
2021/09/21 06:59:43;;;;;;;5.78;3.67;;;18.70;84.70;;;;;;5063164;28;20036;-70
2021/09/21 07:02:09;;;;;;;8.75;4.20;;;19.00;83.60;;;;;;5056849;28;20107;-70
2021/09/21 07:04:35;;;;;;;9.45;4.28;;;19.30;83.00;;;;;;5062093;28;20021;-70
2021/09/21 07:07:00;;;;;;;7.60;3.80;;;19.50;81.80;;;;;;5064023;28;20429;-71
2021/09/21 07:09:26;;;;;;;8.77;3.72;;;19.70;81.10;;;;;;5061660;28;20104;-71
2021/09/21 07:11:51;;;;;;;9.18;3.78;;;19.90;80.30;;;;;;5061429;28;20028;-71
2021/09/21 07:14:18;;;;;;;6.53;4.28;;;20.00;79.70;;;;;;5069874;28;20025;-70
2021/09/21 07:16:44;;;;;;;12.40;4.05;;;20.10;78.90;;;;;;5064055;28;20024;-70
2021/09/21 07:19:10;;;;;;;8.15;4.35;;;20.30;78.30;;;;;;5070775;28;20066;-71
2021/09/21 07:21:35;;;;;;;9.80;3.50;;;20.40;78.00;;;;;;5049363;28;20032;-71
2021/09/21 07:24:01;;;;;;;7.38;4.47;;;20.50;77.60;;;;;;5070458;28;20086;-71
2021/09/21 07:26:26;;;;;;;12.75;4.15;;;20.60;77.00;;;;;;5067145;28;20095;-71
2021/09/21 07:28:52;;;;;;;12.60;4.43;;;20.80;76.80;;;;;;5069972;28;20047;-71
2021/09/21 07:31:18;;;;;;;10.57;3.70;;;20.80;75.90;;;;;;5071868;28;20067;-71
2021/09/21 07:33:44;;;;;;;7.38;4.28;;;20.90;75.70;;;;;;5043022;28;20482;-70
2021/09/21 07:36:09;;;;;;;7.95;4.18;;;21.00;74.60;;;;;;5063910;28;20027;-69
2021/09/21 07:38:35;;;;;;;6.85;4.13;;;21.00;73.90;;;;;;5064459;28;20348;-69
2021/09/21 07:41:01;;;;;;;8.25;4.35;;;21.00;73.80;;;;;;5059740;28;20020;-71
2021/09/21 07:43:27;;;;;;;7.75;3.72;;;21.00;73.60;;;;;;5069364;28;20081;-71
2021/09/21 07:45:53;;;;;;;6.90;3.58;;;21.20;73.60;;;;;;5070598;28;20579;-71
2021/09/21 07:48:20;;;;;;;5.88;3.40;;;21.60;73.00;;;;;;5063441;28;20144;-71
2021/09/21 07:50:47;;;;;;;6.10;3.88;;;21.90;71.80;;;;;;5068005;28;20065;-71
2021/09/21 07:53:13;;;;;;;10.65;4.85;;;22.20;71.10;;;;;;5060897;28;20509;-69
2021/09/21 07:55:39;;;;;;;6.93;3.60;;;22.50;70.20;;;;;;5072876;28;20146;-72
2021/09/21 07:58:04;;;;;;;6.95;3.78;;;22.70;69.20;;;;;;5072211;28;20024;-70
2021/09/21 08:00:30;;;;;;;5.80;3.40;;;23.00;68.60;;;;;;5067497;28;20039;-71
2021/09/21 08:02:56;;;;;;;6.15;3.50;;;23.20;67.70;;;;;;5067885;28;20031;-71
2021/09/21 08:05:22;;;;;;;8.38;4.30;;;23.50;67.70;;;;;;5069889;28;20017;-67
2021/09/21 08:07:48;;;;;;;6.53;3.75;;;23.70;67.50;;;;;;5067004;28;20131;-68
2021/09/21 08:10:13;;;;;;;5.13;4.03;;;23.90;67.30;;;;;;5072274;28;20101;-68
2021/09/21 08:12:40;;;;;;;5.07;3.72;;;24.10;67.10;;;;;;5051441;28;20102;-69
2021/09/21 08:15:07;;;;;;;6.40;3.65;;;24.30;66.50;;;;;;5061749;28;20025;-69
2021/09/21 08:17:33;;;;;;;4.53;3.15;;;24.40;65.90;;;;;;5076873;28;20081;-68
2021/09/21 08:19:58;;;;;;;5.50;3.40;;;24.40;64.80;;;;;;5062880;28;20115;-73
2021/09/21 08:22:25;;;;;;;5.18;3.22;;;24.60;65.00;;;;;;5071859;28;20044;-71
2021/09/21 08:24:52;;;;;;;5.28;3.75;;;24.80;63.80;;;;;;5065981;28;20540;-71
2021/09/21 08:27:17;;;;;;;5.07;3.42;;;25.00;62.30;;;;;;5065821;28;20032;-72
2021/09/21 08:29:43;;;;;;;7.28;3.70;;;25.10;62.00;;;;;;5078270;28;20477;-73
2021/09/21 08:32:08;;;;;;;4.35;2.60;;;25.30;61.80;;;;;;5059268;28;20160;-73
2021/09/21 08:34:34;;;;;;;4.28;2.53;;;25.50;60.80;;;;;;5063347;28;20107;-71
2021/09/21 08:37:00;;;;;;;6.40;3.05;;;25.70;60.50;;;;;;5076045;28;20021;-71
2021/09/21 08:39:26;;;;;;;4.00;2.75;;;25.80;59.50;;;;;;5072918;28;20016;-72
2021/09/21 08:41:52;;;;;;;4.57;2.35;;;25.80;58.60;;;;;;5062591;28;20358;-72
2021/09/21 08:44:18;;;;;;;5.65;2.50;;;25.80;58.00;;;;;;5072878;28;20020;-71
2021/09/21 08:46:45;;;;;;;5.35;2.28;;;25.80;58.00;;;;;;5078903;28;20085;-73
2021/09/21 08:49:12;;;;;;;4.18;2.67;;;25.70;57.30;;;;;;5057674;28;20432;-72
2021/09/21 08:51:37;;;;;;;4.70;2.97;;;25.70;57.40;;;;;;5079784;28;20132;-71
2021/09/21 08:54:04;;;;;;;4.63;2.72;;;25.60;57.80;;;;;;5073238;28;20448;-70
2021/09/21 08:56:30;;;;;;;5.00;2.60;;;25.60;57.60;;;;;;5079814;28;20020;-70
2021/09/21 08:59:00;;;;;;;5.90;2.28;;;25.60;57.50;;;;;;5082136;28;20016;-70
2021/09/21 09:01:36;;;;;;;7.18;2.55;;;25.70;56.80;;;;;;5081060;28;20022;-70
2021/09/21 09:04:02;;;;;;;4.13;2.28;;;25.90;56.90;;;;;;5083487;28;20025;-70
2021/09/21 09:06:28;;;;;;;3.42;1.80;;;25.90;55.90;;;;;;5069800;28;20528;-70
2021/09/21 09:08:54;;;;;;;3.42;1.48;;;26.00;55.30;;;;;;5068999;28;20635;-70
2021/09/21 09:11:22;;;;;;;6.95;2.30;;;26.00;54.60;;;;;;5069585;28;20021;-70
2021/09/21 09:13:57;;;;;;;6.07;2.97;;;26.00;54.90;;;;;;5074327;28;20024;-70
2021/09/21 09:16:26;;;;;;;4.43;3.17;;;26.10;55.00;;;;;;5073030;28;20040;-71
2021/09/21 09:19:05;;;;;;;7.43;3.40;;;26.10;55.40;;;;;;5073455;28;20069;-69
2021/09/21 09:21:34;;;;;;;7.38;3.63;;;26.20;55.70;;;;;;5076063;28;20389;-70
2021/09/21 09:24:02;;;;;;;7.68;4.40;;;26.20;55.70;;;;;;5081814;28;20023;-70
2021/09/21 09:26:27;;;;;;;8.90;4.72;;;26.30;55.70;;;;;;5075368;28;20582;-70
2021/09/21 09:28:56;;;;;;;12.07;4.78;;;26.30;55.80;;;;;;5072323;28;20108;-69
2021/09/21 09:31:30;;;;;;;5.63;3.63;;;26.50;55.80;;;;;;5059302;28;20498;-70
2021/09/21 09:34:18;;;;;;;3.75;2.35;;;26.70;54.90;;;;;;5063867;28;20523;-71
2021/09/21 09:36:48;;;;;;;5.03;2.42;;;26.90;53.50;;;;;;5053995;28;20402;-71
2021/09/21 09:39:16;;;;;;;3.58;2.15;;;27.10;53.20;;;;;;5052461;28;20025;-69
2021/09/21 09:41:43;;;;;;;3.97;1.90;;;27.20;52.90;;;;;;5055467;28;20382;-71
2021/09/21 09:44:13;;;;;;;7.80;1.92;;;27.40;51.70;;;;;;5055275;28;20060;-69
2021/09/21 09:46:45;;;;;;;2.33;1.65;;;27.50;50.70;;;;;;5056558;28;20184;-70
2021/09/21 09:49:11;;;;;;;1.58;1.13;;;27.70;49.80;;;;;;5061598;28;20037;-66
2021/09/21 09:52:08;;;;;;;4.85;2.03;;;27.70;49.00;;;;;;5049811;28;20096;-67
2021/09/21 09:54:35;;;;;;;3.65;1.58;;;27.70;49.40;;;;;;5054222;28;20080;-68
2021/09/21 09:57:02;;;;;;;4.78;1.63;;;27.50;49.10;;;;;;5070562;28;20021;-68
2021/09/21 09:59:28;;;;;;;2.80;1.88;;;27.40;49.70;;;;;;5066303;28;20020;-68
2021/09/21 10:01:54;;;;;;;2.92;1.60;;;27.20;50.30;;;;;;5053110;28;20057;-68
2021/09/21 10:04:21;;;;;;;2.75;0.80;;;27.10;50.50;;;;;;5073816;28;20025;-69
2021/09/21 10:06:47;;;;;;;2.78;0.65;;;26.90;49.70;;;;;;5064999;28;20035;-70
2021/09/21 10:09:15;;;;;;;3.38;1.00;;;26.80;49.90;;;;;;5054767;28;20017;-68
2021/09/21 10:11:43;;;;;;;3.50;0.90;;;26.70;49.50;;;;;;5076746;28;20016;-72
2021/09/21 10:14:12;;;;;;;1.60;0.85;;;26.50;48.80;;;;;;5066565;28;20028;-68
2021/09/21 10:16:52;;;;;;;3.70;0.63;;;26.50;49.50;;;;;;5065831;28;20044;-69
2021/09/21 10:19:20;;;;;;;1.45;0.80;;;26.40;49.00;;;;;;5068906;28;20036;-68
2021/09/21 10:21:47;;;;;;;2.53;1.05;;;26.30;49.10;;;;;;5053913;28;20029;-68
2021/09/21 10:24:13;;;;;;;6.88;0.90;;;26.30;49.30;;;;;;5053863;28;20017;-68
2021/09/21 10:26:49;;;;;;;3.38;0.82;;;26.30;49.70;;;;;;5052762;28;20078;-68
2021/09/21 10:29:16;;;;;;;1.42;0.57;;;26.30;50.40;;;;;;5052186;28;20089;-67
2021/09/21 10:31:42;;;;;;;1.30;0.70;;;26.30;50.00;;;;;;5067002;28;20027;-67
2021/09/21 10:34:15;;;;;;;1.38;0.55;;;26.20;49.80;;;;;;5070790;28;20025;-67
2021/09/21 10:36:51;;;;;;;3.20;0.60;;;26.10;49.70;;;;;;5061981;28;20036;-67
2021/09/21 10:39:20;;;;;;;1.90;0.80;;;26.00;50.20;;;;;;5053403;28;20028;-67
2021/09/21 10:41:49;;;;;;;3.00;0.80;;;25.90;50.10;;;;;;5053561;28;20048;-67
2021/09/21 10:44:15;;;;;;;1.67;0.43;;;25.90;50.60;;;;;;5052590;28;20020;-67
2021/09/21 10:46:51;;;;;;;6.10;0.73;;;25.80;50.90;;;;;;5052106;28;20027;-67
2021/09/21 10:49:31;;;;;;;1.48;0.55;;;25.90;50.70;;;;;;5055292;28;20151;-67
2021/09/21 10:52:00;;;;;;;1.75;0.90;;;25.90;50.60;;;;;;5033027;28;20055;-67
2021/09/21 10:54:28;;;;;;;;;;;25.90;50.60;;;;;;5055877;28;20024;-67
2021/09/21 10:57:02;;;;;;;2.35;0.82;;;25.90;50.10;;;;;;5052997;28;20380;-67
2021/09/21 10:59:28;;;;;;;2.80;1.05;;;25.90;50.10;;;;;;5064420;28;20594;-67
2021/09/21 11:01:56;;;;;;;2.88;0.90;;;25.90;50.30;;;;;;5057647;28;20048;-67
2021/09/21 11:04:22;;;;;;;1.42;0.55;;;25.90;50.70;;;;;;5059487;28;20025;-67
2021/09/21 11:06:48;;;;;;;1.98;0.70;;;25.90;50.90;;;;;;5055717;28;20025;-67
2021/09/21 11:09:24;;;;;;;2.75;0.93;;;26.00;50.70;;;;;;5055723;28;20378;-67
2021/09/21 11:11:49;;;;;;;1.55;0.57;;;26.00;50.70;;;;;;5059778;28;20036;-67
2021/09/21 11:14:19;;;;;;;3.08;1.27;;;26.00;51.20;;;;;;5064912;28;20092;-67
2021/09/21 11:16:52;;;;;;;2.55;1.17;;;26.00;51.00;;;;;;5073516;28;20440;-67
2021/09/21 11:19:18;;;;;;;2.65;0.90;;;25.90;51.10;;;;;;5064419;28;20023;-67
2021/09/21 11:21:44;;;;;;;3.33;1.05;;;25.90;51.50;;;;;;5075788;28;20032;-67
2021/09/21 11:24:09;;;;;;;4.82;1.13;;;25.90;51.20;;;;;;5077300;28;20024;-67
2021/09/21 11:26:35;;;;;;;6.43;1.58;;;25.90;51.10;;;;;;5065824;28;20044;-67
2021/09/21 11:29:01;;;;;;;2.58;1.02;;;25.90;51.20;;;;;;5050745;28;20020;-67
2021/09/21 11:31:26;;;;;;;1.50;1.10;;;26.00;52.50;;;;;;5064835;28;20051;-67
2021/09/21 11:33:54;;;;;;;3.38;1.45;;;26.00;52.80;;;;;;5068534;28;20162;-67
2021/09/21 11:36:20;;;;;;;3.45;1.15;;;26.20;53.60;;;;;;5068820;28;20055;-67
2021/09/21 11:38:49;;;;;;;4.53;1.77;;;26.20;54.00;;;;;;5072483;28;20501;-67
2021/09/21 11:41:16;;;;;;;1.98;1.02;;;26.30;53.90;;;;;;5048482;28;20406;-67
2021/09/21 11:43:42;;;;;;;3.47;1.25;;;26.40;54.30;;;;;;5070680;28;20013;-67
2021/09/21 11:46:07;;;;;;;7.40;1.58;;;26.40;54.20;;;;;;5070488;28;20027;-67
2021/09/21 11:48:33;;;;;;;3.13;1.05;;;26.40;54.00;;;;;;5070487;28;20265;-67
2021/09/21 11:50:58;;;;;;;5.82;1.92;;;26.40;53.80;;;;;;5068601;28;20074;-67
2021/09/21 11:53:26;;;;;;;3.35;1.75;;;26.40;54.50;;;;;;5064396;28;20028;-67
2021/09/21 11:55:55;;;;;;;3.80;1.10;;;26.40;54.90;;;;;;5077074;28;20028;-68
2021/09/21 11:58:33;;;;;;;3.07;1.20;;;26.40;54.80;;;;;;5062941;28;20074;-67
2021/09/21 12:01:01;;;;;;;3.13;0.80;;;26.40;53.50;;;;;;5070346;28;20021;-68
2021/09/21 12:03:28;;;;;;;2.17;0.95;;;26.40;53.30;;;;;;5061322;28;20023;-68
2021/09/21 12:05:56;;;;;;;4.43;2.17;;;26.30;53.50;;;;;;5070407;28;20020;-67
2021/09/21 12:08:33;;;;;;;3.55;1.52;;;26.40;54.20;;;;;;5067910;28;20458;-68
2021/09/21 12:11:06;;;;;;;3.38;1.77;;;26.40;54.50;;;;;;5069383;28;20036;-67
2021/09/21 12:13:32;;;;;;;5.75;2.03;;;26.40;54.50;;;;;;5070622;28;20078;-67
2021/09/21 12:16:00;;;;;;;4.22;1.88;;;26.30;54.40;;;;;;5070043;28;20020;-67
2021/09/21 12:18:28;;;;;;;3.30;2.03;;;26.30;55.00;;;;;;5071488;28;20033;-67
2021/09/21 12:20:59;;;;;;;3.97;2.05;;;26.30;55.10;;;;;;5070705;28;20016;-67
2021/09/21 12:23:30;;;;;;;4.43;1.83;;;26.40;54.70;;;;;;5061652;28;20050;-67
2021/09/21 12:25:58;;;;;;;4.78;2.47;;;26.40;54.60;;;;;;5069066;28;20513;-67
2021/09/21 12:28:27;;;;;;;4.35;2.08;;;26.40;54.30;;;;;;5067981;28;20158;-67
2021/09/21 12:30:53;;;;;;;5.35;2.00;;;26.40;54.40;;;;;;5070893;28;20024;-68
2021/09/21 12:33:19;;;;;;;4.40;2.83;;;26.40;54.40;;;;;;5069084;28;20085;-67
2021/09/21 12:35:54;;;;;;;4.82;2.10;;;26.40;54.90;;;;;;5075555;28;20024;-67
2021/09/21 12:38:22;;;;;;;6.22;2.95;;;26.30;55.00;;;;;;5068015;28;20028;-67
2021/09/21 12:40:49;;;;;;;3.77;2.03;;;26.20;54.70;;;;;;5068080;28;20036;-67
2021/09/21 12:43:20;;;;;;;4.80;2.17;;;26.20;55.00;;;;;;5069340;28;20267;-67
2021/09/21 12:45:49;;;;;;;3.85;2.03;;;26.20;55.80;;;;;;5074133;28;20024;-67
2021/09/21 12:48:15;;;;;;;7.22;2.72;;;26.10;55.10;;;;;;5072055;28;20036;-66
2021/09/21 12:50:42;;;;;;;3.95;2.85;;;26.20;55.30;;;;;;5069175;28;20032;-67
2021/09/21 12:53:18;;;;;;;6.43;2.63;;;26.20;55.40;;;;;;5072732;28;20039;-67
2021/09/21 12:55:44;;;;;;;4.97;2.28;;;26.20;54.90;;;;;;5065176;28;20351;-66